Loading…
Loading parcel record…
Hopewell Twp, NJ·Mercer County
Owner email, phone, and authorized agent are available on Pro.
| Date | Price | Book / Page | Verified by |
|---|---|---|---|
| 2/3/2023 | $2,062,500 | — | Recorded deed |
Activity captured from the county clerk's daily feed. Includes deeds, mortgages, and other recorded filings.
| Date | Type | Grantor | Grantee | Book / Page | Instrument |
|---|---|---|---|---|---|
| 2026-03-17 | NOTICE OF SETTLEMENT | — |
| — |
| 1625 / 1367 |
| 2026011937 |
| 2026-03-13 | MORTGAGE | — | — | 12033 / 1087 | 2026011511 |
| 2026-03-13 | DEED | — | — | 6620 / 1010 | 2026011510 |
| 2026-02-04 | DISCHARGE OF MORTGAGE | — | — | 1691 / 957 | 2026003912 |
| 2026-01-22 | NOTICE OF SETTLEMENT | — | — | 1623 / 1342 | 2026002446 |
| 2026-01-20 | MORTGAGE | — | — | 12016 / 1094 | 2026001965 |
| 2025-12-19 | DEED | — | — | 6613 / 1059 | 2025046275 |
| 2025-11-03 | MORTGAGE | — | — | 11994 / 1611 | 2025039136 |
| 2025-09-15 | MORTGAGE | — | — | 11984 / 64 | 2025033633 |
| 2025-09-15 | DEED | — | — | 6603 / 1200 | 2025033632 |
| 2025-07-16 | MORTGAGE | — | — | 11969 / 1756 | 2025026082 |
| 2025-07-16 | DEED | — | — | 6597 / 951 | 2025026081 |
| 2025-07-09 | DEED | — | — | 6596 / 1184 | 2025024905 |
| 2025-07-09 | DEED | — | — | 6596 / 1177 | 2025024904 |
| 2025-07-09 | DEED | — | — | 6596 / 1170 | 2025024903 |
| 2025-06-26 | MORTGAGE | — | — | 11964 / 1734 | 2025023351 |
| 2025-06-26 | DEED | — | — | 6595 / 581 | 2025023350 |
| 2025-06-26 | MORTGAGE | — | — | 11964 / 1714 | 2025023349 |
| 2025-06-26 | DEED | — | — | 6595 / 574 | 2025023348 |
| 2025-06-26 | MORTGAGE | — | — | 11964 / 1694 | 2025023343 |
| 2025-06-26 | DEED | — | — | 6595 / 541 | 2025023342 |
| 2024-11-27 | MISC DEED | — | — | 6576 / 103 | 2024041251 |
| 2024-11-18 | MORTGAGE | — | — | 11915 / 1479 | 2024039912 |
| 2024-11-07 | MISC DEED | — | — | 6573 / 1594 | 2024038634 |
| 2024-09-25 | NOTICE OF LIS PENDENS | — | — | 439 / 302 | 2024033286 |
| 2024-09-17 | MISC DEED | — | — | 6568 / 1659 | 2024032408 |
| 2024-09-04 | MISC DEED | — | — | 6567 / 298 | 2024030449 |
| 2024-04-25 | DEED | — | — | 6554 / 1628 | 2024014727 |
| 2024-02-28 | TAX SALE CERTIFICATE | — | — | 11861 / 1689 | 2024006763 |
| 2024-01-11 | DEED | — | — | 6546 / 530 | 2024001287 |